sensor_id;sensor_type;location;lat;lon;timestamp;pressure;altitude;pressure_sealevel;temperature;humidity
75089;BME280;63673;49.928;8.150;2022-10-03T00:00:00;999.56;;;8.66;100
75089;BME280;63673;49.928;8.150;2022-10-03T00:01:16;999.6;;;8.66;100
75089;BME280;63673;49.928;8.150;2022-10-03T00:02:11;999.56;;;8.68;100
75089;BME280;63673;49.928;8.150;2022-10-03T00:04:08;999.55;;;8.71;100
75089;BME280;63673;49.928;8.150;2022-10-03T00:05:09;999.61;;;8.72;100
75089;BME280;63673;49.928;8.150;2022-10-03T00:06:08;999.49;;;8.74;100
75089;BME280;63673;49.928;8.150;2022-10-03T00:07:12;999.58;;;8.75;100
75089;BME280;63673;49.928;8.150;2022-10-03T00:08:13;999.58;;;8.76;100
75089;BME280;63673;49.928;8.150;2022-10-03T00:09:17;999.57;;;8.77;100
75089;BME280;63673;49.928;8.150;2022-10-03T00:10:16;999.58;;;8.78;100
75089;BME280;63673;49.928;8.150;2022-10-03T00:11:17;999.59;;;8.79;100
75089;BME280;63673;49.928;8.150;2022-10-03T00:12:30;999.6;;;8.79;100
75089;BME280;63673;49.928;8.150;2022-10-03T00:13:19;999.54;;;8.79;100
75089;BME280;63673;49.928;8.150;2022-10-03T00:14:22;999.58;;;8.8;100
75089;BME280;63673;49.928;8.150;2022-10-03T00:15:23;999.56;;;8.8;100
75089;BME280;63673;49.928;8.150;2022-10-03T00:16:25;999.61;;;8.81;100
75089;BME280;63673;49.928;8.150;2022-10-03T00:17:26;999.61;;;8.81;100
75089;BME280;63673;49.928;8.150;2022-10-03T00:18:30;999.61;;;8.8;100
75089;BME280;63673;49.928;8.150;2022-10-03T00:19:30;999.61;;;8.8;100
75089;BME280;63673;49.928;8.150;2022-10-03T00:20:34;999.6;;;8.79;100
75089;BME280;63673;49.928;8.150;2022-10-03T00:21:36;999.62;;;8.77;100
75089;BME280;63673;49.928;8.150;2022-10-03T00:22:36;999.6;;;8.76;100
75089;BME280;63673;49.928;8.150;2022-10-03T00:23:39;999.6;;;8.73;100
75089;BME280;63673;49.928;8.150;2022-10-03T00:24:40;999.6;;;8.71;100
75089;BME280;63673;49.928;8.150;2022-10-03T00:25:41;999.52;;;8.7;100
75089;BME280;63673;49.928;8.150;2022-10-03T00:26:43;999.55;;;8.68;100
75089;BME280;63673;49.928;8.150;2022-10-03T00:27:44;999.56;;;8.67;100
75089;BME280;63673;49.928;8.150;2022-10-03T00:28:48;999.55;;;8.66;100
75089;BME280;63673;49.928;8.150;2022-10-03T00:29:49;999.59;;;8.65;100
75089;BME280;63673;49.928;8.150;2022-10-03T00:30:51;999.59;;;8.64;100
75089;BME280;63673;49.928;8.150;2022-10-03T00:31:52;999.54;;;8.63;100
75089;BME280;63673;49.928;8.150;2022-10-03T00:32:56;999.58;;;8.63;100
75089;BME280;63673;49.928;8.150;2022-10-03T00:33:58;999.61;;;8.62;100
75089;BME280;63673;49.928;8.150;2022-10-03T00:35:00;999.59;;;8.62;100
75089;BME280;63673;49.928;8.150;2022-10-03T00:36:00;999.61;;;8.62;100
75089;BME280;63673;49.928;8.150;2022-10-03T00:37:07;999.62;;;8.61;100
75089;BME280;63673;49.928;8.150;2022-10-03T00:38:06;999.56;;;8.61;100
75089;BME280;63673;49.928;8.150;2022-10-03T00:39:07;999.63;;;8.59;100
75089;BME280;63673;49.928;8.150;2022-10-03T00:40:38;999.59;;;8.58;100
75089;BME280;63673;49.928;8.150;2022-10-03T00:41:11;999.67;;;8.57;100
75089;BME280;63673;49.928;8.150;2022-10-03T00:42:15;999.69;;;8.53;100
75089;BME280;63673;49.928;8.150;2022-10-03T00:43:21;999.68;;;8.51;100
75089;BME280;63673;49.928;8.150;2022-10-03T00:44:17;999.76;;;8.49;100
75089;BME280;63673;49.928;8.150;2022-10-03T00:45:27;999.71;;;8.47;100
75089;BME280;63673;49.928;8.150;2022-10-03T00:46:18;999.68;;;8.45;100
75089;BME280;63673;49.928;8.150;2022-10-03T00:47:22;999.68;;;8.43;100
75089;BME280;63673;49.928;8.150;2022-10-03T00:48:30;999.71;;;8.42;100
75089;BME280;63673;49.928;8.150;2022-10-03T00:50:25;999.76;;;8.41;100
75089;BME280;63673;49.928;8.150;2022-10-03T00:51:24;999.73;;;8.4;100
75089;BME280;63673;49.928;8.150;2022-10-03T00:52:28;999.75;;;8.39;100
75089;BME280;63673;49.928;8.150;2022-10-03T00:53:30;999.78;;;8.38;100
75089;BME280;63673;49.928;8.150;2022-10-03T00:54:35;999.82;;;8.38;100
75089;BME280;63673;49.928;8.150;2022-10-03T00:55:34;999.85;;;8.37;100
75089;BME280;63673;49.928;8.150;2022-10-03T00:56:39;999.86;;;8.36;100
75089;BME280;63673;49.928;8.150;2022-10-03T00:57:37;999.86;;;8.35;100
75089;BME280;63673;49.928;8.150;2022-10-03T00:58:37;999.88;;;8.34;100
75089;BME280;63673;49.928;8.150;2022-10-03T00:59:40;999.88;;;8.32;100
75089;BME280;63673;49.928;8.150;2022-10-03T01:00:38;999.9;;;8.3;100
75089;BME280;63673;49.928;8.150;2022-10-03T01:01:41;999.86;;;8.3;100
75089;BME280;63673;49.928;8.150;2022-10-03T01:02:45;999.9;;;8.29;100
75089;BME280;63673;49.928;8.150;2022-10-03T01:03:44;999.88;;;8.29;100
75089;BME280;63673;49.928;8.150;2022-10-03T01:04:47;999.89;;;8.28;100
75089;BME280;63673;49.928;8.150;2022-10-03T01:05:48;999.89;;;8.28;100
75089;BME280;63673;49.928;8.150;2022-10-03T01:06:53;999.85;;;8.27;100
75089;BME280;63673;49.928;8.150;2022-10-03T01:07:54;999.88;;;8.26;100
75089;BME280;63673;49.928;8.150;2022-10-03T01:08:56;999.91;;;8.25;100
75089;BME280;63673;49.928;8.150;2022-10-03T01:09:58;999.93;;;8.25;100
75089;BME280;63673;49.928;8.150;2022-10-03T01:10:57;999.96;;;8.24;100
75089;BME280;63673;49.928;8.150;2022-10-03T01:12:02;999.99;;;8.24;100
75089;BME280;63673;49.928;8.150;2022-10-03T01:13:04;1000;;;8.24;100
75089;BME280;63673;49.928;8.150;2022-10-03T01:14:04;999.99;;;8.23;100
75089;BME280;63673;49.928;8.150;2022-10-03T01:15:08;1000.05;;;8.23;100
75089;BME280;63673;49.928;8.150;2022-10-03T01:16:06;1000.04;;;8.23;100
75089;BME280;63673;49.928;8.150;2022-10-03T01:17:09;1000.07;;;8.23;100
75089;BME280;63673;49.928;8.150;2022-10-03T01:18:12;1000.07;;;8.22;100
75089;BME280;63673;49.928;8.150;2022-10-03T01:19:17;1000.07;;;8.22;100
75089;BME280;63673;49.928;8.150;2022-10-03T01:20:14;1000.1;;;8.22;100
75089;BME280;63673;49.928;8.150;2022-10-03T01:21:15;1000.1;;;8.22;100
75089;BME280;63673;49.928;8.150;2022-10-03T01:22:21;1000.1;;;8.22;100
75089;BME280;63673;49.928;8.150;2022-10-03T01:23:22;1000.1;;;8.23;100
75089;BME280;63673;49.928;8.150;2022-10-03T01:24:24;1000.08;;;8.24;100
75089;BME280;63673;49.928;8.150;2022-10-03T01:25:25;1000.11;;;8.23;100
75089;BME280;63673;49.928;8.150;2022-10-03T01:26:28;1000.06;;;8.24;100
75089;BME280;63673;49.928;8.150;2022-10-03T01:27:25;1000.09;;;8.23;100
75089;BME280;63673;49.928;8.150;2022-10-03T01:28:29;1000.11;;;8.23;100
75089;BME280;63673;49.928;8.150;2022-10-03T01:29:31;1000.11;;;8.24;100
75089;BME280;63673;49.928;8.150;2022-10-03T01:30:32;1000.05;;;8.22;100
75089;BME280;63673;49.928;8.150;2022-10-03T01:31:36;1000.09;;;8.21;100
75089;BME280;63673;49.928;8.150;2022-10-03T01:32:35;1000.1;;;8.19;100
75089;BME280;63673;49.928;8.150;2022-10-03T01:33:35;1000.15;;;8.17;100
75089;BME280;63673;49.928;8.150;2022-10-03T01:34:39;1000.15;;;8.15;100
75089;BME280;63673;49.928;8.150;2022-10-03T01:35:40;1000.16;;;8.14;100
75089;BME280;63673;49.928;8.150;2022-10-03T01:36:41;1000.14;;;8.13;100
75089;BME280;63673;49.928;8.150;2022-10-03T01:37:43;1000.14;;;8.11;100
75089;BME280;63673;49.928;8.150;2022-10-03T01:38:43;1000.14;;;8.11;100
75089;BME280;63673;49.928;8.150;2022-10-03T01:39:45;1000.17;;;8.11;100
75089;BME280;63673;49.928;8.150;2022-10-03T01:40:48;1000.18;;;8.12;100
75089;BME280;63673;49.928;8.150;2022-10-03T01:41:49;1000.16;;;8.12;100
75089;BME280;63673;49.928;8.150;2022-10-03T01:42:53;1000.17;;;8.14;100
75089;BME280;63673;49.928;8.150;2022-10-03T01:43:52;1000.17;;;8.15;100
75089;BME280;63673;49.928;8.150;2022-10-03T01:44:57;1000.14;;;8.17;100
75089;BME280;63673;49.928;8.150;2022-10-03T01:45:58;1000.15;;;8.19;100
75089;BME280;63673;49.928;8.150;2022-10-03T01:46:57;1000.2;;;8.2;100
75089;BME280;63673;49.928;8.150;2022-10-03T01:47:59;1000.2;;;8.21;100
75089;BME280;63673;49.928;8.150;2022-10-03T01:49:00;1000.2;;;8.23;100
75089;BME280;63673;49.928;8.150;2022-10-03T01:50:03;1000.24;;;8.25;100
75089;BME280;63673;49.928;8.150;2022-10-03T01:51:06;1000.24;;;8.26;100
75089;BME280;63673;49.928;8.150;2022-10-03T01:52:08;1000.25;;;8.28;100
75089;BME280;63673;49.928;8.150;2022-10-03T01:53:07;1000.25;;;8.3;100
75089;BME280;63673;49.928;8.150;2022-10-03T01:54:11;1000.26;;;8.32;100
75089;BME280;63673;49.928;8.150;2022-10-03T01:55:11;1000.23;;;8.32;100
75089;BME280;63673;49.928;8.150;2022-10-03T01:56:14;1000.28;;;8.34;100
75089;BME280;63673;49.928;8.150;2022-10-03T01:57:15;1000.24;;;8.35;100
75089;BME280;63673;49.928;8.150;2022-10-03T01:58:18;1000.26;;;8.37;100
75089;BME280;63673;49.928;8.150;2022-10-03T01:59:18;1000.26;;;8.39;100
75089;BME280;63673;49.928;8.150;2022-10-03T02:00:20;1000.26;;;8.41;100
75089;BME280;63673;49.928;8.150;2022-10-03T02:01:22;1000.27;;;8.42;100
75089;BME280;63673;49.928;8.150;2022-10-03T02:02:26;1000.27;;;8.42;100
75089;BME280;63673;49.928;8.150;2022-10-03T02:03:25;1000.2;;;8.44;100
75089;BME280;63673;49.928;8.150;2022-10-03T02:04:30;1000.22;;;8.45;100
75089;BME280;63673;49.928;8.150;2022-10-03T02:05:33;1000.23;;;8.46;100
75089;BME280;63673;49.928;8.150;2022-10-03T02:06:32;1000.24;;;8.47;100
75089;BME280;63673;49.928;8.150;2022-10-03T02:07:34;1000.21;;;8.49;100
75089;BME280;63673;49.928;8.150;2022-10-03T02:08:35;1000.21;;;8.49;100
75089;BME280;63673;49.928;8.150;2022-10-03T02:09:35;1000.2;;;8.5;100
75089;BME280;63673;49.928;8.150;2022-10-03T02:10:37;1000.16;;;8.5;100
75089;BME280;63673;49.928;8.150;2022-10-03T02:11:38;1000.18;;;8.5;100
75089;BME280;63673;49.928;8.150;2022-10-03T02:12:40;1000.19;;;8.5;100
75089;BME280;63673;49.928;8.150;2022-10-03T02:13:43;1000.19;;;8.52;100
75089;BME280;63673;49.928;8.150;2022-10-03T02:14:45;1000.18;;;8.52;100
75089;BME280;63673;49.928;8.150;2022-10-03T02:15:49;1000.17;;;8.52;100
75089;BME280;63673;49.928;8.150;2022-10-03T02:16:52;1000.15;;;8.51;100
75089;BME280;63673;49.928;8.150;2022-10-03T02:17:50;1000.17;;;8.51;100
75089;BME280;63673;49.928;8.150;2022-10-03T02:18:52;1000.22;;;8.49;100
75089;BME280;63673;49.928;8.150;2022-10-03T02:19:54;1000.18;;;8.48;100
75089;BME280;63673;49.928;8.150;2022-10-03T02:20:56;1000.16;;;8.47;100
75089;BME280;63673;49.928;8.150;2022-10-03T02:21:56;1000.18;;;8.45;100
75089;BME280;63673;49.928;8.150;2022-10-03T02:22:57;1000.18;;;8.43;100
75089;BME280;63673;49.928;8.150;2022-10-03T02:24:05;1000.17;;;8.42;100
75089;BME280;63673;49.928;8.150;2022-10-03T02:25:04;1000.13;;;8.4;100
75089;BME280;63673;49.928;8.150;2022-10-03T02:26:06;1000.16;;;8.39;100
75089;BME280;63673;49.928;8.150;2022-10-03T02:28:11;1000.19;;;8.36;100
75089;BME280;63673;49.928;8.150;2022-10-03T02:29:11;1000.17;;;8.35;100
75089;BME280;63673;49.928;8.150;2022-10-03T02:30:11;1000.13;;;8.34;100
75089;BME280;63673;49.928;8.150;2022-10-03T02:32:21;1000.15;;;8.33;100
75089;BME280;63673;49.928;8.150;2022-10-03T02:32:25;1000.11;;;8.31;100
75089;BME280;63673;49.928;8.150;2022-10-03T02:33:33;1000.12;;;8.3;100
75089;BME280;63673;49.928;8.150;2022-10-03T02:34:24;1000.16;;;8.28;100
75089;BME280;63673;49.928;8.150;2022-10-03T02:35:40;1000.12;;;8.27;100
75089;BME280;63673;49.928;8.150;2022-10-03T02:36:24;1000.05;;;8.26;100
75089;BME280;63673;49.928;8.150;2022-10-03T02:37:26;1000.09;;;8.26;100
75089;BME280;63673;49.928;8.150;2022-10-03T02:38:25;1000.14;;;8.26;100
75089;BME280;63673;49.928;8.150;2022-10-03T02:39:30;1000.12;;;8.26;100
75089;BME280;63673;49.928;8.150;2022-10-03T02:40:30;1000.11;;;8.27;100
75089;BME280;63673;49.928;8.150;2022-10-03T02:41:34;1000.1;;;8.26;100
75089;BME280;63673;49.928;8.150;2022-10-03T02:42:32;1000.12;;;8.26;100
75089;BME280;63673;49.928;8.150;2022-10-03T02:43:39;1000.12;;;8.26;100
75089;BME280;63673;49.928;8.150;2022-10-03T02:44:47;1000.13;;;8.25;100
75089;BME280;63673;49.928;8.150;2022-10-03T02:45:40;1000.13;;;8.25;100
75089;BME280;63673;49.928;8.150;2022-10-03T02:46:44;1000.16;;;8.25;100
75089;BME280;63673;49.928;8.150;2022-10-03T02:47:44;1000.16;;;8.24;100
75089;BME280;63673;49.928;8.150;2022-10-03T02:48:46;1000.18;;;8.23;100
75089;BME280;63673;49.928;8.150;2022-10-03T02:49:51;1000.13;;;8.21;100
75089;BME280;63673;49.928;8.150;2022-10-03T02:51:05;1000.19;;;8.2;100
75089;BME280;63673;49.928;8.150;2022-10-03T02:51:48;1000.16;;;8.19;100
75089;BME280;63673;49.928;8.150;2022-10-03T02:52:53;1000.11;;;8.17;100
75089;BME280;63673;49.928;8.150;2022-10-03T02:54:54;1000.2;;;8.14;100
75089;BME280;63673;49.928;8.150;2022-10-03T02:56:14;1000.2;;;8.11;100
75089;BME280;63673;49.928;8.150;2022-10-03T02:57:03;1000.19;;;8.1;100
75089;BME280;63673;49.928;8.150;2022-10-03T02:58:05;1000.2;;;8.07;100
75089;BME280;63673;49.928;8.150;2022-10-03T02:59:11;1000.19;;;8.05;100
75089;BME280;63673;49.928;8.150;2022-10-03T03:00:05;1000.26;;;8.02;100
75089;BME280;63673;49.928;8.150;2022-10-03T03:01:23;1000.28;;;7.99;100
75089;BME280;63673;49.928;8.150;2022-10-03T03:02:07;1000.27;;;7.95;100
75089;BME280;63673;49.928;8.150;2022-10-03T03:03:12;1000.31;;;7.92;100
75089;BME280;63673;49.928;8.150;2022-10-03T03:04:14;1000.28;;;7.88;100
75089;BME280;63673;49.928;8.150;2022-10-03T03:05:17;1000.34;;;7.85;100
75089;BME280;63673;49.928;8.150;2022-10-03T03:06:12;1000.41;;;7.82;100
75089;BME280;63673;49.928;8.150;2022-10-03T03:07:17;1000.41;;;7.79;100
75089;BME280;63673;49.928;8.150;2022-10-03T03:08:19;1000.43;;;7.76;100
75089;BME280;63673;49.928;8.150;2022-10-03T03:10:23;1000.46;;;7.71;100
75089;BME280;63673;49.928;8.150;2022-10-03T03:11:25;1000.48;;;7.69;100
75089;BME280;63673;49.928;8.150;2022-10-03T03:12:27;1000.47;;;7.67;100
75089;BME280;63673;49.928;8.150;2022-10-03T03:15:35;1000.54;;;7.6;100
75089;BME280;63673;49.928;8.150;2022-10-03T03:17:31;1000.54;;;7.56;100
75089;BME280;63673;49.928;8.150;2022-10-03T03:18:32;1000.51;;;7.54;100
75089;BME280;63673;49.928;8.150;2022-10-03T03:19:39;1000.58;;;7.52;100
75089;BME280;63673;49.928;8.150;2022-10-03T03:20:38;1000.59;;;7.49;100
75089;BME280;63673;49.928;8.150;2022-10-03T03:21:38;1000.59;;;7.47;100
75089;BME280;63673;49.928;8.150;2022-10-03T03:22:42;1000.57;;;7.45;100
75089;BME280;63673;49.928;8.150;2022-10-03T03:24:15;1000.59;;;7.43;100
75089;BME280;63673;49.928;8.150;2022-10-03T03:24:46;1000.59;;;7.42;100
75089;BME280;63673;49.928;8.150;2022-10-03T03:25:47;1000.62;;;7.4;100
75089;BME280;63673;49.928;8.150;2022-10-03T03:26:50;1000.64;;;7.39;100
75089;BME280;63673;49.928;8.150;2022-10-03T03:27:49;1000.64;;;7.36;100
75089;BME280;63673;49.928;8.150;2022-10-03T03:28:51;1000.62;;;7.33;100
75089;BME280;63673;49.928;8.150;2022-10-03T03:29:51;1000.66;;;7.29;100
75089;BME280;63673;49.928;8.150;2022-10-03T03:30:54;1000.67;;;7.25;100
75089;BME280;63673;49.928;8.150;2022-10-03T03:31:54;1000.63;;;7.21;100
75089;BME280;63673;49.928;8.150;2022-10-03T03:32:59;1000.66;;;7.17;100
75089;BME280;63673;49.928;8.150;2022-10-03T03:33:59;1000.63;;;7.13;100
75089;BME280;63673;49.928;8.150;2022-10-03T03:35:01;1000.63;;;7.09;100
75089;BME280;63673;49.928;8.150;2022-10-03T03:36:01;1000.65;;;7.06;100
75089;BME280;63673;49.928;8.150;2022-10-03T03:37:03;1000.62;;;7.04;100
75089;BME280;63673;49.928;8.150;2022-10-03T03:38:07;1000.65;;;7.03;100
75089;BME280;63673;49.928;8.150;2022-10-03T03:39:10;1000.69;;;7.01;100
75089;BME280;63673;49.928;8.150;2022-10-03T03:40:11;1000.69;;;7.01;100
75089;BME280;63673;49.928;8.150;2022-10-03T03:41:16;1000.69;;;7.01;100
75089;BME280;63673;49.928;8.150;2022-10-03T03:42:16;1000.68;;;7.01;100
75089;BME280;63673;49.928;8.150;2022-10-03T03:43:16;1000.66;;;7.03;100
75089;BME280;63673;49.928;8.150;2022-10-03T03:44:23;1000.7;;;7.06;100
75089;BME280;63673;49.928;8.150;2022-10-03T03:45:20;1000.71;;;7.07;100
75089;BME280;63673;49.928;8.150;2022-10-03T03:46:20;1000.75;;;7.09;100
75089;BME280;63673;49.928;8.150;2022-10-03T03:47:25;1000.64;;;7.13;100
75089;BME280;63673;49.928;8.150;2022-10-03T03:48:30;1000.73;;;7.16;100
75089;BME280;63673;49.928;8.150;2022-10-03T03:49:29;1000.74;;;7.19;100
75089;BME280;63673;49.928;8.150;2022-10-03T03:50:28;1000.73;;;7.21;100
75089;BME280;63673;49.928;8.150;2022-10-03T03:51:29;1000.77;;;7.25;100
75089;BME280;63673;49.928;8.150;2022-10-03T03:52:33;1000.69;;;7.27;100
75089;BME280;63673;49.928;8.150;2022-10-03T03:53:36;1000.75;;;7.28;100
75089;BME280;63673;49.928;8.150;2022-10-03T03:54:36;1000.77;;;7.29;100
75089;BME280;63673;49.928;8.150;2022-10-03T03:55:38;1000.75;;;7.31;100
75089;BME280;63673;49.928;8.150;2022-10-03T03:56:42;1000.78;;;7.32;100
75089;BME280;63673;49.928;8.150;2022-10-03T03:57:40;1000.75;;;7.33;100
75089;BME280;63673;49.928;8.150;2022-10-03T03:58:39;1000.78;;;7.36;100
75089;BME280;63673;49.928;8.150;2022-10-03T03:59:44;1000.8;;;7.37;100
75089;BME280;63673;49.928;8.150;2022-10-03T04:00:47;1000.8;;;7.39;100
75089;BME280;63673;49.928;8.150;2022-10-03T04:01:47;1000.79;;;7.41;100
75089;BME280;63673;49.928;8.150;2022-10-03T04:03:04;1000.87;;;7.43;100
75089;BME280;63673;49.928;8.150;2022-10-03T04:03:49;1000.84;;;7.45;100
75089;BME280;63673;49.928;8.150;2022-10-03T04:04:53;1000.84;;;7.47;100
75089;BME280;63673;49.928;8.150;2022-10-03T04:05:54;1000.83;;;7.48;100
75089;BME280;63673;49.928;8.150;2022-10-03T04:06:55;1000.86;;;7.51;100
75089;BME280;63673;49.928;8.150;2022-10-03T04:07:58;1000.84;;;7.52;100
75089;BME280;63673;49.928;8.150;2022-10-03T04:09:00;1000.87;;;7.54;100
75089;BME280;63673;49.928;8.150;2022-10-03T04:10:02;1000.84;;;7.54;100
75089;BME280;63673;49.928;8.150;2022-10-03T04:11:01;1000.84;;;7.56;100
75089;BME280;63673;49.928;8.150;2022-10-03T04:12:03;1000.85;;;7.57;100
75089;BME280;63673;49.928;8.150;2022-10-03T04:13:07;1000.83;;;7.58;100
75089;BME280;63673;49.928;8.150;2022-10-03T04:14:08;1000.82;;;7.59;100
75089;BME280;63673;49.928;8.150;2022-10-03T04:15:11;1000.86;;;7.6;100
75089;BME280;63673;49.928;8.150;2022-10-03T04:16:10;1000.82;;;7.61;100
75089;BME280;63673;49.928;8.150;2022-10-03T04:17:14;1000.87;;;7.62;100
75089;BME280;63673;49.928;8.150;2022-10-03T04:18:16;1000.88;;;7.62;100
75089;BME280;63673;49.928;8.150;2022-10-03T04:19:16;1000.91;;;7.64;100
75089;BME280;63673;49.928;8.150;2022-10-03T04:20:18;1000.92;;;7.64;100
75089;BME280;63673;49.928;8.150;2022-10-03T04:21:24;1000.92;;;7.65;100
75089;BME280;63673;49.928;8.150;2022-10-03T04:22:23;1000.9;;;7.66;100
75089;BME280;63673;49.928;8.150;2022-10-03T04:23:28;1000.96;;;7.67;100
75089;BME280;63673;49.928;8.150;2022-10-03T04:24:26;1000.97;;;7.68;100
75089;BME280;63673;49.928;8.150;2022-10-03T04:25:27;1001.01;;;7.68;100
75089;BME280;63673;49.928;8.150;2022-10-03T04:26:31;1000.99;;;7.69;100
75089;BME280;63673;49.928;8.150;2022-10-03T04:27:34;1000.95;;;7.68;100
75089;BME280;63673;49.928;8.150;2022-10-03T04:28:32;1000.96;;;7.69;100
75089;BME280;63673;49.928;8.150;2022-10-03T04:29:37;1000.97;;;7.68;100
75089;BME280;63673;49.928;8.150;2022-10-03T04:30:34;1001.02;;;7.68;100
75089;BME280;63673;49.928;8.150;2022-10-03T04:31:37;1000.94;;;7.67;100
75089;BME280;63673;49.928;8.150;2022-10-03T04:32:43;1000.96;;;7.66;100
75089;BME280;63673;49.928;8.150;2022-10-03T04:33:41;1000.98;;;7.64;100
75089;BME280;63673;49.928;8.150;2022-10-03T04:34:43;1000.96;;;7.62;100
75089;BME280;63673;49.928;8.150;2022-10-03T04:35:47;1000.93;;;7.6;100
75089;BME280;63673;49.928;8.150;2022-10-03T04:36:48;1000.9;;;7.59;100
75089;BME280;63673;49.928;8.150;2022-10-03T04:37:45;1000.95;;;7.57;100
75089;BME280;63673;49.928;8.150;2022-10-03T04:38:48;1000.94;;;7.55;100
75089;BME280;63673;49.928;8.150;2022-10-03T04:39:49;1000.93;;;7.53;100
75089;BME280;63673;49.928;8.150;2022-10-03T04:40:52;1000.94;;;7.5;100
75089;BME280;63673;49.928;8.150;2022-10-03T04:41:52;1000.96;;;7.48;100
75089;BME280;63673;49.928;8.150;2022-10-03T04:42:56;1000.95;;;7.46;100
75089;BME280;63673;49.928;8.150;2022-10-03T04:43:57;1000.93;;;7.45;100
75089;BME280;63673;49.928;8.150;2022-10-03T04:45:00;1000.94;;;7.43;100
75089;BME280;63673;49.928;8.150;2022-10-03T04:46:00;1000.97;;;7.42;100
75089;BME280;63673;49.928;8.150;2022-10-03T04:47:01;1000.87;;;7.41;100
75089;BME280;63673;49.928;8.150;2022-10-03T04:48:04;1000.91;;;7.4;100
75089;BME280;63673;49.928;8.150;2022-10-03T04:49:04;1000.95;;;7.39;100
75089;BME280;63673;49.928;8.150;2022-10-03T04:50:06;1001;;;7.38;100
75089;BME280;63673;49.928;8.150;2022-10-03T04:51:10;1000.95;;;7.38;100
75089;BME280;63673;49.928;8.150;2022-10-03T04:52:13;1001;;;7.36;100
75089;BME280;63673;49.928;8.150;2022-10-03T04:53:15;1000.98;;;7.36;100
75089;BME280;63673;49.928;8.150;2022-10-03T04:54:15;1001.03;;;7.34;100
75089;BME280;63673;49.928;8.150;2022-10-03T04:55:16;1001.05;;;7.34;100
75089;BME280;63673;49.928;8.150;2022-10-03T04:56:20;1001.05;;;7.34;100
75089;BME280;63673;49.928;8.150;2022-10-03T04:57:19;1001.08;;;7.35;100
75089;BME280;63673;49.928;8.150;2022-10-03T04:58:23;1001.04;;;7.35;100
75089;BME280;63673;49.928;8.150;2022-10-03T04:59:25;1001.03;;;7.36;100
75089;BME280;63673;49.928;8.150;2022-10-03T05:00:23;1001.02;;;7.37;100
75089;BME280;63673;49.928;8.150;2022-10-03T05:01:26;1001.04;;;7.38;100
75089;BME280;63673;49.928;8.150;2022-10-03T05:02:29;1001.07;;;7.39;100
75089;BME280;63673;49.928;8.150;2022-10-03T05:03:32;1001.06;;;7.4;100
75089;BME280;63673;49.928;8.150;2022-10-03T05:04:31;1001.04;;;7.41;100
75089;BME280;63673;49.928;8.150;2022-10-03T05:05:37;1001.08;;;7.43;100
75089;BME280;63673;49.928;8.150;2022-10-03T05:06:35;1001.04;;;7.46;100
75089;BME280;63673;49.928;8.150;2022-10-03T05:07:36;1001.13;;;7.48;100
75089;BME280;63673;49.928;8.150;2022-10-03T05:08:37;1001.14;;;7.51;100
75089;BME280;63673;49.928;8.150;2022-10-03T05:09:39;1001.16;;;7.54;100
75089;BME280;63673;49.928;8.150;2022-10-03T05:10:46;1001.16;;;7.57;100
75089;BME280;63673;49.928;8.150;2022-10-03T05:11:45;1001.19;;;7.6;100
75089;BME280;63673;49.928;8.150;2022-10-03T05:12:46;1001.17;;;7.63;100
75089;BME280;63673;49.928;8.150;2022-10-03T05:13:51;1001.19;;;7.67;100
75089;BME280;63673;49.928;8.150;2022-10-03T05:14:50;1001.12;;;7.71;100
75089;BME280;63673;49.928;8.150;2022-10-03T05:15:50;1001.18;;;7.74;100
75089;BME280;63673;49.928;8.150;2022-10-03T05:16:53;1001.15;;;7.77;100
75089;BME280;63673;49.928;8.150;2022-10-03T05:17:54;1001.14;;;7.81;100
75089;BME280;63673;49.928;8.150;2022-10-03T05:18:54;1001.18;;;7.84;100
75089;BME280;63673;49.928;8.150;2022-10-03T05:20:00;1001.17;;;7.87;100
75089;BME280;63673;49.928;8.150;2022-10-03T05:20:58;1001.16;;;7.9;100
75089;BME280;63673;49.928;8.150;2022-10-03T05:22:00;1001.2;;;7.93;100
75089;BME280;63673;49.928;8.150;2022-10-03T05:23:04;1001.16;;;7.95;100
75089;BME280;63673;49.928;8.150;2022-10-03T05:24:08;1001.2;;;7.99;100
75089;BME280;63673;49.928;8.150;2022-10-03T05:25:10;1001.2;;;8;100
75089;BME280;63673;49.928;8.150;2022-10-03T05:26:08;1001.15;;;8.03;100
75089;BME280;63673;49.928;8.150;2022-10-03T05:27:10;1001.17;;;8.04;100
75089;BME280;63673;49.928;8.150;2022-10-03T05:28:13;1001.13;;;8.08;100
75089;BME280;63673;49.928;8.150;2022-10-03T05:29:14;1001.12;;;8.1;100
75089;BME280;63673;49.928;8.150;2022-10-03T05:30:14;1001.19;;;8.12;100
75089;BME280;63673;49.928;8.150;2022-10-03T05:31:19;1001.17;;;8.14;100
75089;BME280;63673;49.928;8.150;2022-10-03T05:32:19;1001.19;;;8.16;100
75089;BME280;63673;49.928;8.150;2022-10-03T05:33:20;1001.12;;;8.18;100
75089;BME280;63673;49.928;8.150;2022-10-03T05:34:22;1001.18;;;8.19;100
75089;BME280;63673;49.928;8.150;2022-10-03T05:35:24;1001.17;;;8.22;100
75089;BME280;63673;49.928;8.150;2022-10-03T05:36:26;1001.23;;;8.23;100
75089;BME280;63673;49.928;8.150;2022-10-03T05:37:31;1001.26;;;8.24;100
75089;BME280;63673;49.928;8.150;2022-10-03T05:38:31;1001.23;;;8.26;100
75089;BME280;63673;49.928;8.150;2022-10-03T05:39:29;1001.18;;;8.27;100
75089;BME280;63673;49.928;8.150;2022-10-03T05:40:31;1001.27;;;8.28;100
75089;BME280;63673;49.928;8.150;2022-10-03T05:41:32;1001.21;;;8.29;100
75089;BME280;63673;49.928;8.150;2022-10-03T05:42:35;1001.25;;;8.3;100
75089;BME280;63673;49.928;8.150;2022-10-03T05:43:43;1001.19;;;8.31;100
75089;BME280;63673;49.928;8.150;2022-10-03T05:44:39;1001.27;;;8.31;100
75089;BME280;63673;49.928;8.150;2022-10-03T05:45:43;1001.3;;;8.32;100
75089;BME280;63673;49.928;8.150;2022-10-03T05:46:46;1001.29;;;8.34;100
75089;BME280;63673;49.928;8.150;2022-10-03T05:47:45;1001.32;;;8.34;100
75089;BME280;63673;49.928;8.150;2022-10-03T05:48:46;1001.31;;;8.35;100
75089;BME280;63673;49.928;8.150;2022-10-03T05:49:48;1001.32;;;8.35;100
75089;BME280;63673;49.928;8.150;2022-10-03T05:51:53;1001.33;;;8.37;100
75089;BME280;63673;49.928;8.150;2022-10-03T05:51:56;1001.36;;;8.36;100
75089;BME280;63673;49.928;8.150;2022-10-03T05:52:55;1001.35;;;8.37;100
75089;BME280;63673;49.928;8.150;2022-10-03T05:53:58;1001.39;;;8.37;100
75089;BME280;63673;49.928;8.150;2022-10-03T05:55:00;1001.42;;;8.38;100